createdAt,value
2023-10-29T00:00:20.792Z,988.64
2023-10-29T00:00:50.760Z,988.61
2023-10-29T00:01:20.795Z,988.62
2023-10-29T00:01:50.840Z,988.62
2023-10-29T00:02:20.848Z,988.58
2023-10-29T00:02:50.805Z,988.58
2023-10-29T00:03:20.889Z,988.58
2023-10-29T00:03:51.499Z,988.56
2023-10-29T00:04:20.756Z,988.58
2023-10-29T00:04:50.694Z,988.54
2023-10-29T00:05:20.714Z,988.52
2023-10-29T00:05:50.765Z,988.56
2023-10-29T00:06:20.684Z,988.57
2023-10-29T00:06:50.674Z,988.52
2023-10-29T00:07:20.700Z,988.49
2023-10-29T00:07:50.780Z,988.49
2023-10-29T00:08:20.933Z,988.47
2023-10-29T00:08:50.694Z,988.42
2023-10-29T00:09:20.642Z,988.42
2023-10-29T00:09:50.644Z,988.42
2023-10-29T00:10:20.624Z,988.40
2023-10-29T00:10:50.650Z,988.37
2023-10-29T00:11:20.639Z,988.34
2023-10-29T00:11:50.677Z,988.33
2023-10-29T00:12:20.638Z,988.34
2023-10-29T00:12:50.620Z,988.32
2023-10-29T00:13:20.613Z,988.28
2023-10-29T00:13:50.620Z,988.32
2023-10-29T00:14:22.611Z,988.27
2023-10-29T00:14:50.801Z,988.32
2023-10-29T00:15:20.574Z,988.30
2023-10-29T00:15:50.569Z,988.27
2023-10-29T00:16:20.606Z,988.25
2023-10-29T00:16:50.564Z,988.28
2023-10-29T00:17:20.627Z,988.24
2023-10-29T00:17:50.715Z,988.24
2023-10-29T00:18:20.609Z,988.22
2023-10-29T00:18:50.547Z,988.21
2023-10-29T00:19:20.535Z,988.19
2023-10-29T00:19:50.533Z,988.16
2023-10-29T00:20:20.551Z,988.18
2023-10-29T00:20:50.540Z,988.15
2023-10-29T00:21:20.522Z,988.14
2023-10-29T00:21:50.641Z,988.12
2023-10-29T00:22:20.707Z,988.15
2023-10-29T00:22:50.495Z,988.07
2023-10-29T00:23:20.518Z,988.07
2023-10-29T00:23:50.553Z,988.11
2023-10-29T00:24:20.508Z,988.14
2023-10-29T00:24:50.495Z,988.14
2023-10-29T00:25:20.505Z,988.13
2023-10-29T00:25:50.485Z,988.15
2023-10-29T00:26:20.486Z,988.13
2023-10-29T00:26:50.510Z,988.13
2023-10-29T00:27:20.506Z,988.11
2023-10-29T00:27:50.453Z,988.15
2023-10-29T00:28:20.458Z,988.11
2023-10-29T00:28:50.436Z,988.11
2023-10-29T00:29:20.512Z,988.12
2023-10-29T00:29:50.451Z,988.15
2023-10-29T00:30:20.428Z,988.16
2023-10-29T00:30:50.468Z,988.13
2023-10-29T00:31:20.463Z,988.11
2023-10-29T00:31:50.435Z,988.15
2023-10-29T00:32:20.476Z,988.17
2023-10-29T00:32:50.442Z,988.15
2023-10-29T00:33:20.458Z,988.12
2023-10-29T00:33:50.391Z,988.17
2023-10-29T00:34:20.387Z,988.24
2023-10-29T00:34:50.383Z,988.12
2023-10-29T00:35:20.421Z,988.11
2023-10-29T00:35:50.568Z,988.15
2023-10-29T00:36:20.554Z,988.14
2023-10-29T00:36:50.352Z,988.19
2023-10-29T00:37:20.375Z,988.17
2023-10-29T00:37:50.348Z,988.18
2023-10-29T00:38:20.415Z,988.19
2023-10-29T00:38:50.374Z,988.20
2023-10-29T00:39:20.350Z,988.19
2023-10-29T00:39:50.331Z,988.21
2023-10-29T00:40:20.325Z,988.20
2023-10-29T00:40:50.339Z,988.17
2023-10-29T00:41:20.387Z,988.14
2023-10-29T00:41:50.357Z,988.17
2023-10-29T00:42:20.315Z,988.21
2023-10-29T00:42:50.303Z,988.19
2023-10-29T00:43:20.297Z,988.18
2023-10-29T00:43:50.301Z,988.21
2023-10-29T00:44:20.291Z,988.18
2023-10-29T00:44:50.559Z,988.15
2023-10-29T00:45:20.286Z,988.19
2023-10-29T00:45:50.291Z,988.18
2023-10-29T00:46:20.291Z,988.16
2023-10-29T00:46:50.255Z,988.16
2023-10-29T00:47:20.269Z,988.16
2023-10-29T00:47:50.355Z,988.18
2023-10-29T00:48:20.319Z,988.17
2023-10-29T00:48:50.233Z,988.14
2023-10-29T00:49:20.243Z,988.11
2023-10-29T00:49:50.376Z,988.12
2023-10-29T00:50:20.395Z,988.15
2023-10-29T00:50:50.293Z,988.15
2023-10-29T00:51:20.206Z,988.10
2023-10-29T00:51:50.224Z,988.08
2023-10-29T00:52:20.222Z,988.04
2023-10-29T00:52:50.191Z,988.04
2023-10-29T00:53:20.283Z,988.03
2023-10-29T00:53:50.220Z,988.07
2023-10-29T00:54:20.162Z,988.07
2023-10-29T00:54:50.163Z,988.04
2023-10-29T00:55:20.190Z,988.06
2023-10-29T00:55:50.191Z,988.06
2023-10-29T00:56:20.172Z,988.09
2023-10-29T00:56:50.241Z,988.06
2023-10-29T00:57:20.132Z,988.07
2023-10-29T00:57:50.140Z,988.08
2023-10-29T00:58:20.124Z,988.07
2023-10-29T00:58:50.126Z,988.08
2023-10-29T00:59:20.174Z,988.08
2023-10-29T00:59:50.152Z,988.04
2023-10-29T01:00:20.360Z,988.02
2023-10-29T01:00:50.110Z,988.03
2023-10-29T01:01:20.140Z,988.04
2023-10-29T01:01:50.251Z,988.02
2023-10-29T01:02:20.143Z,988.02
2023-10-29T01:02:50.200Z,988.01
2023-10-29T01:03:20.319Z,988.02
2023-10-29T01:03:50.306Z,988.04
2023-10-29T01:04:20.252Z,988.02
2023-10-29T01:04:50.076Z,987.99
2023-10-29T01:05:20.080Z,988.00
2023-10-29T01:05:50.130Z,987.96
2023-10-29T01:06:20.233Z,987.99
2023-10-29T01:06:50.072Z,987.95
2023-10-29T01:07:20.037Z,987.89
2023-10-29T01:07:50.033Z,987.89
2023-10-29T01:08:20.025Z,987.85
2023-10-29T01:08:50.042Z,987.82
2023-10-29T01:09:20.015Z,987.84
2023-10-29T01:09:50.025Z,987.85
2023-10-29T01:10:19.995Z,987.78
2023-10-29T01:10:50.011Z,987.84
2023-10-29T01:11:19.993Z,987.80
2023-10-29T01:11:50.001Z,987.80
2023-10-29T01:12:20.018Z,987.80
2023-10-29T01:12:49.983Z,987.75
2023-10-29T01:13:19.979Z,987.77
2023-10-29T01:13:49.967Z,987.78
2023-10-29T01:14:19.990Z,987.76
2023-10-29T01:14:50.307Z,987.84
2023-10-29T01:15:19.943Z,987.73
2023-10-29T01:15:49.984Z,987.78
2023-10-29T01:16:19.937Z,987.75
2023-10-29T01:16:49.933Z,987.74
2023-10-29T01:17:19.955Z,987.74
2023-10-29T01:17:50.103Z,987.72
2023-10-29T01:18:20.205Z,987.73
2023-10-29T01:18:49.908Z,987.73
2023-10-29T01:19:19.902Z,987.74
2023-10-29T01:19:49.892Z,987.69
2023-10-29T01:20:19.900Z,987.73
2023-10-29T01:20:49.899Z,987.73
2023-10-29T01:21:19.883Z,987.69
2023-10-29T01:21:49.875Z,987.66
2023-10-29T01:22:19.911Z,987.67
2023-10-29T01:22:49.876Z,987.63
2023-10-29T01:23:19.891Z,987.61
2023-10-29T01:23:49.898Z,987.62
2023-10-29T01:24:19.871Z,987.62
2023-10-29T01:24:49.936Z,987.63
2023-10-29T01:25:19.861Z,987.64
2023-10-29T01:25:49.842Z,987.66
2023-10-29T01:26:19.838Z,987.62
2023-10-29T01:26:49.847Z,987.70
2023-10-29T01:27:19.845Z,987.62
2023-10-29T01:27:49.808Z,987.61
2023-10-29T01:28:19.855Z,987.59
2023-10-29T01:28:49.821Z,987.61
2023-10-29T01:29:19.818Z,987.64
2023-10-29T01:29:49.836Z,987.61
2023-10-29T01:30:19.817Z,987.74
2023-10-29T01:30:49.800Z,987.58
2023-10-29T01:31:19.816Z,987.66
2023-10-29T01:31:49.895Z,987.62
2023-10-29T01:32:19.966Z,987.66
2023-10-29T01:32:49.826Z,987.64
2023-10-29T01:33:19.861Z,987.64
2023-10-29T01:33:49.747Z,987.61
2023-10-29T01:34:19.753Z,987.58
2023-10-29T01:34:49.747Z,987.56
2023-10-29T01:35:19.756Z,987.56
2023-10-29T01:35:49.763Z,987.56
2023-10-29T01:36:19.753Z,987.56
2023-10-29T01:36:49.726Z,987.50
2023-10-29T01:37:19.742Z,987.47
2023-10-29T01:37:49.705Z,987.50
2023-10-29T01:38:19.705Z,987.43
2023-10-29T01:38:49.733Z,987.46
2023-10-29T01:39:19.682Z,987.44
2023-10-29T01:39:49.687Z,987.46
2023-10-29T01:40:19.726Z,987.46
2023-10-29T01:40:49.690Z,987.44
2023-10-29T01:41:19.672Z,987.40
2023-10-29T01:41:49.692Z,987.35
2023-10-29T01:42:19.683Z,987.34
2023-10-29T01:42:49.653Z,987.42
2023-10-29T01:43:19.665Z,987.34
2023-10-29T01:43:49.658Z,987.32
2023-10-29T01:44:19.642Z,987.36
2023-10-29T01:44:49.968Z,987.36
2023-10-29T01:45:19.632Z,987.42
2023-10-29T01:45:49.827Z,987.40
2023-10-29T01:46:19.795Z,987.42
2023-10-29T01:46:49.612Z,987.37
2023-10-29T01:47:19.649Z,987.37
2023-10-29T01:47:49.742Z,987.39
2023-10-29T01:48:19.664Z,987.37
2023-10-29T01:48:49.596Z,987.37
2023-10-29T01:49:19.580Z,987.36
2023-10-29T01:49:49.575Z,987.26
2023-10-29T01:50:19.592Z,987.34
2023-10-29T01:50:49.609Z,987.28
2023-10-29T01:51:19.566Z,987.28
2023-10-29T01:51:49.561Z,987.31
2023-10-29T01:52:19.563Z,987.30
2023-10-29T01:52:49.580Z,987.27
2023-10-29T01:53:19.561Z,987.22
2023-10-29T01:53:49.642Z,987.21
2023-10-29T01:54:19.539Z,987.20
2023-10-29T01:54:49.599Z,987.20
2023-10-29T01:55:19.526Z,987.19
2023-10-29T01:55:49.526Z,987.19
2023-10-29T01:56:19.534Z,987.17
2023-10-29T01:56:49.538Z,987.21
2023-10-29T01:57:19.520Z,987.20
2023-10-29T01:57:49.545Z,987.19
2023-10-29T01:58:19.484Z,987.14
2023-10-29T01:58:49.490Z,987.23
2023-10-29T01:59:19.494Z,987.21
2023-10-29T01:59:49.623Z,987.20
2023-10-29T02:00:19.650Z,987.19
2023-10-29T02:00:49.463Z,987.20
2023-10-29T02:01:20.429Z,987.20
2023-10-29T02:01:49.447Z,987.17
2023-10-29T02:02:19.481Z,987.24
2023-10-29T02:02:49.495Z,987.22
2023-10-29T02:03:19.561Z,987.15
2023-10-29T02:03:49.581Z,987.16
2023-10-29T02:04:19.471Z,987.13
2023-10-29T02:04:49.423Z,987.11
2023-10-29T02:05:19.416Z,987.09
2023-10-29T02:05:49.486Z,987.06
2023-10-29T02:06:19.406Z,986.97
2023-10-29T02:06:49.397Z,986.95
2023-10-29T02:07:19.397Z,986.89
2023-10-29T02:07:49.405Z,986.94
2023-10-29T02:08:19.425Z,986.93
2023-10-29T02:08:49.421Z,987.05
2023-10-29T02:09:19.374Z,986.97
2023-10-29T02:09:49.384Z,986.99
2023-10-29T02:10:19.368Z,986.94
2023-10-29T02:10:49.365Z,986.93
2023-10-29T02:11:19.375Z,986.92
2023-10-29T02:11:49.368Z,986.94
2023-10-29T02:12:19.348Z,986.89
2023-10-29T02:12:49.338Z,986.84
2023-10-29T02:13:19.324Z,986.89
2023-10-29T02:13:49.514Z,986.84
2023-10-29T02:14:19.530Z,986.86
2023-10-29T02:14:49.590Z,986.82
2023-10-29T02:15:19.336Z,986.79
2023-10-29T02:15:49.370Z,986.81
2023-10-29T02:16:19.383Z,986.83
2023-10-29T02:16:49.307Z,986.82
2023-10-29T02:17:19.297Z,986.84
2023-10-29T02:17:49.357Z,986.88
2023-10-29T02:18:19.393Z,986.84
2023-10-29T02:18:49.318Z,986.81
2023-10-29T02:19:19.277Z,986.78
2023-10-29T02:19:49.273Z,986.76
2023-10-29T02:20:19.271Z,986.76
2023-10-29T02:20:49.255Z,986.76
2023-10-29T02:21:19.278Z,986.80
2023-10-29T02:21:49.246Z,986.78
2023-10-29T02:22:19.246Z,986.78
2023-10-29T02:22:49.236Z,986.80
2023-10-29T02:23:19.231Z,986.81
2023-10-29T02:23:49.237Z,986.79
2023-10-29T02:24:19.263Z,986.72
2023-10-29T02:24:49.334Z,986.69
2023-10-29T02:25:19.210Z,986.73
2023-10-29T02:25:49.197Z,986.80
2023-10-29T02:26:19.193Z,986.70
2023-10-29T02:26:49.206Z,986.74
2023-10-29T02:27:19.213Z,986.74
2023-10-29T02:27:49.307Z,986.76
2023-10-29T02:28:19.365Z,986.63
2023-10-29T02:28:49.183Z,986.66
2023-10-29T02:29:19.207Z,986.63
2023-10-29T02:29:49.213Z,986.57
2023-10-29T02:30:19.167Z,986.64
2023-10-29T02:30:49.143Z,986.51
2023-10-29T02:31:19.227Z,986.59
2023-10-29T02:31:49.146Z,986.54
2023-10-29T02:32:19.141Z,986.58
2023-10-29T02:32:49.184Z,986.55
2023-10-29T02:33:19.192Z,986.59
2023-10-29T02:33:49.107Z,986.56
2023-10-29T02:34:19.125Z,986.53
2023-10-29T02:34:49.203Z,986.51
2023-10-29T02:35:19.092Z,986.50
2023-10-29T02:35:49.119Z,986.49
2023-10-29T02:36:19.085Z,986.46
2023-10-29T02:36:49.078Z,986.53
2023-10-29T02:37:19.084Z,986.56
2023-10-29T02:37:49.074Z,986.49
2023-10-29T02:38:19.069Z,986.50
2023-10-29T02:38:49.067Z,986.47
2023-10-29T02:39:19.062Z,986.44
2023-10-29T02:39:49.071Z,986.34
2023-10-29T02:40:19.100Z,986.36
2023-10-29T02:40:49.061Z,986.40
2023-10-29T02:41:19.091Z,986.43
2023-10-29T02:41:49.202Z,986.45
2023-10-29T02:42:19.247Z,986.43
2023-10-29T02:42:49.012Z,986.39
2023-10-29T02:43:19.015Z,986.38
2023-10-29T02:43:49.004Z,986.39
2023-10-29T02:44:19.007Z,986.31
2023-10-29T02:44:49.142Z,986.41
2023-10-29T02:45:19.024Z,986.39
2023-10-29T02:45:49.032Z,986.49
2023-10-29T02:46:19.009Z,986.45
2023-10-29T02:46:49.012Z,986.53
2023-10-29T02:47:18.994Z,986.53
2023-10-29T02:47:49.131Z,986.50
2023-10-29T02:48:19.045Z,986.54
2023-10-29T02:48:48.965Z,986.43
2023-10-29T02:49:18.953Z,986.42
2023-10-29T02:49:48.962Z,986.41
2023-10-29T02:50:18.982Z,986.42
2023-10-29T02:50:49.030Z,986.45
2023-10-29T02:51:18.948Z,986.46
2023-10-29T02:51:48.942Z,986.41
2023-10-29T02:52:18.911Z,986.41
2023-10-29T02:52:48.942Z,986.40
2023-10-29T02:53:18.906Z,986.35
2023-10-29T02:53:48.937Z,986.37
2023-10-29T02:54:18.889Z,986.41
2023-10-29T02:54:49.057Z,986.36
2023-10-29T02:55:18.931Z,986.39
2023-10-29T02:55:49.013Z,986.35
2023-10-29T02:56:19.065Z,986.32
2023-10-29T02:56:49.025Z,986.36
2023-10-29T02:57:18.910Z,986.30
2023-10-29T02:57:48.927Z,986.25
2023-10-29T02:58:18.871Z,986.26
2023-10-29T02:58:48.875Z,986.23
2023-10-29T02:59:18.856Z,986.15
2023-10-29T02:59:48.846Z,986.17
2023-10-29T03:00:18.869Z,986.19
2023-10-29T03:00:48.844Z,986.32
2023-10-29T03:01:18.878Z,986.16
2023-10-29T03:01:48.824Z,986.16
2023-10-29T03:02:18.842Z,986.17
2023-10-29T03:02:49.016Z,986.13
2023-10-29T03:03:18.889Z,986.14
2023-10-29T03:03:48.947Z,986.16
2023-10-29T03:04:18.983Z,986.21
2023-10-29T03:04:49.100Z,986.16
2023-10-29T03:05:20.392Z,986.16
2023-10-29T03:05:56.796Z,986.24
2023-10-29T03:06:18.787Z,986.24
2023-10-29T03:06:48.783Z,986.30
2023-10-29T03:07:18.774Z,986.21
2023-10-29T03:07:48.773Z,986.28
2023-10-29T03:08:18.752Z,986.28
2023-10-29T03:08:48.753Z,986.28
2023-10-29T03:09:18.756Z,986.32
2023-10-29T03:09:48.893Z,986.34
2023-10-29T03:10:18.950Z,986.28
2023-10-29T03:10:48.764Z,986.26
2023-10-29T03:11:18.721Z,986.27
2023-10-29T03:11:48.758Z,986.21
2023-10-29T03:12:18.721Z,986.20
2023-10-29T03:12:48.720Z,986.23
2023-10-29T03:13:18.817Z,986.16
2023-10-29T03:13:48.688Z,986.20
2023-10-29T03:14:18.688Z,986.17
2023-10-29T03:14:48.895Z,986.15
2023-10-29T03:15:18.710Z,986.06
2023-10-29T03:15:48.681Z,986.07
2023-10-29T03:16:18.721Z,986.07
2023-10-29T03:16:48.656Z,986.02
2023-10-29T03:17:18.675Z,985.97
2023-10-29T03:17:48.694Z,986.06
2023-10-29T03:18:18.695Z,985.92
2023-10-29T03:18:48.737Z,985.85
2023-10-29T03:19:18.644Z,985.82
2023-10-29T03:19:48.658Z,985.82
2023-10-29T03:20:18.633Z,985.80
2023-10-29T03:20:48.648Z,985.74
2023-10-29T03:21:18.651Z,985.67
2023-10-29T03:21:48.635Z,985.69
2023-10-29T03:22:18.708Z,985.71
2023-10-29T03:22:48.608Z,985.69
2023-10-29T03:23:18.630Z,985.69
2023-10-29T03:23:48.834Z,985.71
2023-10-29T03:24:18.755Z,985.68
2023-10-29T03:24:48.813Z,985.65
2023-10-29T03:25:18.594Z,985.59
2023-10-29T03:25:48.560Z,985.73
2023-10-29T03:26:18.588Z,985.71
2023-10-29T03:26:48.594Z,985.75
2023-10-29T03:27:18.551Z,985.74
2023-10-29T03:27:48.581Z,985.75
2023-10-29T03:28:18.545Z,985.81
2023-10-29T03:28:48.528Z,985.78
2023-10-29T03:29:18.558Z,985.71
2023-10-29T03:29:48.581Z,985.69
2023-10-29T03:30:18.513Z,985.71
2023-10-29T03:30:48.521Z,985.67
2023-10-29T03:31:18.582Z,985.77
2023-10-29T03:31:48.556Z,985.72
2023-10-29T03:32:18.794Z,985.67
2023-10-29T03:32:48.601Z,985.67
2023-10-29T03:33:18.693Z,985.80
2023-10-29T03:33:48.569Z,985.73
2023-10-29T03:34:18.477Z,985.75
2023-10-29T03:34:48.726Z,985.71
2023-10-29T03:35:18.513Z,985.73
2023-10-29T03:35:48.468Z,985.77
2023-10-29T03:36:18.456Z,985.76
2023-10-29T03:36:48.490Z,985.70
2023-10-29T03:37:18.441Z,985.63
2023-10-29T03:37:48.692Z,985.72
2023-10-29T03:38:18.686Z,985.74
2023-10-29T03:38:48.753Z,985.79
2023-10-29T03:39:18.528Z,985.71
2023-10-29T03:39:48.423Z,985.72
2023-10-29T03:40:18.405Z,985.63
2023-10-29T03:40:48.412Z,985.66
2023-10-29T03:41:18.393Z,985.62
2023-10-29T03:41:48.423Z,985.66
2023-10-29T03:42:18.396Z,985.65
2023-10-29T03:42:48.382Z,985.63
2023-10-29T03:43:18.383Z,985.63
2023-10-29T03:43:48.412Z,985.69
2023-10-29T03:44:18.368Z,985.67
2023-10-29T03:44:48.534Z,985.75
2023-10-29T03:45:18.364Z,985.74
2023-10-29T03:45:48.397Z,985.76
2023-10-29T03:46:18.346Z,985.74
2023-10-29T03:46:48.347Z,985.77
2023-10-29T03:47:18.374Z,985.72
2023-10-29T03:47:48.382Z,985.76
2023-10-29T03:48:18.380Z,985.74
2023-10-29T03:48:48.368Z,985.71
2023-10-29T03:49:18.339Z,985.69
2023-10-29T03:49:48.315Z,985.70
2023-10-29T03:50:18.323Z,985.64
2023-10-29T03:50:48.318Z,985.70
2023-10-29T03:51:18.307Z,985.66
2023-10-29T03:51:48.548Z,985.65
2023-10-29T03:52:18.473Z,985.64
2023-10-29T03:52:48.308Z,985.66
2023-10-29T03:53:18.288Z,985.67
2023-10-29T03:53:48.313Z,985.60
2023-10-29T03:54:18.292Z,985.62
2023-10-29T03:54:48.349Z,985.70
2023-10-29T03:55:18.263Z,985.62
2023-10-29T03:55:48.253Z,985.68
2023-10-29T03:56:18.255Z,985.72
2023-10-29T03:56:48.324Z,985.66
2023-10-29T03:57:18.245Z,985.57
2023-10-29T03:57:48.260Z,985.65
2023-10-29T03:58:18.241Z,985.65
2023-10-29T03:58:48.247Z,985.68
2023-10-29T03:59:18.220Z,985.60
2023-10-29T03:59:48.264Z,985.57
2023-10-29T04:00:18.233Z,985.59
2023-10-29T04:00:48.205Z,985.59
2023-10-29T04:01:18.232Z,985.63
2023-10-29T04:01:48.207Z,985.67
2023-10-29T04:02:18.182Z,985.61
2023-10-29T04:02:48.288Z,985.59
2023-10-29T04:03:18.317Z,985.65
2023-10-29T04:03:48.349Z,985.66
2023-10-29T04:04:18.243Z,985.63
2023-10-29T04:05:01.814Z,985.70
2023-10-29T04:05:18.160Z,985.57
2023-10-29T04:05:48.326Z,985.70
2023-10-29T04:06:18.327Z,985.62
2023-10-29T04:06:48.145Z,985.72
2023-10-29T04:07:18.159Z,985.65
2023-10-29T04:07:48.368Z,985.68
2023-10-29T04:08:18.155Z,985.62
2023-10-29T04:08:48.157Z,985.65
2023-10-29T04:09:18.127Z,985.63
2023-10-29T04:09:48.098Z,985.56
2023-10-29T04:10:18.120Z,985.56
2023-10-29T04:10:48.116Z,985.60
2023-10-29T04:11:18.922Z,985.66
2023-10-29T04:11:48.153Z,985.69
2023-10-29T04:12:18.094Z,985.68
2023-10-29T04:12:48.092Z,985.60
2023-10-29T04:13:18.089Z,985.57
2023-10-29T04:13:48.063Z,985.62
2023-10-29T04:14:18.073Z,985.54
2023-10-29T04:14:48.280Z,985.55
2023-10-29T04:15:18.080Z,985.59
2023-10-29T04:15:48.052Z,985.57
2023-10-29T04:16:18.082Z,985.55
2023-10-29T04:16:48.056Z,985.54
2023-10-29T04:17:18.068Z,985.53
2023-10-29T04:17:48.102Z,985.54
2023-10-29T04:18:18.152Z,985.52
2023-10-29T04:18:48.017Z,985.57
2023-10-29T04:19:18.019Z,985.55
2023-10-29T04:19:48.125Z,985.46
2023-10-29T04:20:18.179Z,985.52
2023-10-29T04:20:48.043Z,985.57
2023-10-29T04:21:18.004Z,985.52
2023-10-29T04:21:48.921Z,985.53
2023-10-29T04:22:17.984Z,985.38
2023-10-29T04:22:47.988Z,985.35
2023-10-29T04:23:17.963Z,985.40
2023-10-29T04:23:48.039Z,985.40
2023-10-29T04:24:17.968Z,985.35
2023-10-29T04:24:48.172Z,985.37
2023-10-29T04:25:17.973Z,985.29
2023-10-29T04:25:47.939Z,985.32
2023-10-29T04:26:17.971Z,985.29
2023-10-29T04:26:48.003Z,985.37
2023-10-29T04:27:17.924Z,985.35
2023-10-29T04:27:47.922Z,985.35
2023-10-29T04:28:17.919Z,985.39
2023-10-29T04:28:48.877Z,985.41
2023-10-29T04:29:17.919Z,985.39
2023-10-29T04:29:47.928Z,985.44
2023-10-29T04:30:18.041Z,985.33
2023-10-29T04:30:47.948Z,985.47
2023-10-29T04:31:17.954Z,985.38
2023-10-29T04:31:47.881Z,985.48
2023-10-29T04:32:17.900Z,985.37
2023-10-29T04:32:47.956Z,985.35
2023-10-29T04:33:17.905Z,985.36
2023-10-29T04:33:47.988Z,985.39
2023-10-29T04:34:18.038Z,985.41
2023-10-29T04:34:48.017Z,985.41
2023-10-29T04:35:17.842Z,985.46
2023-10-29T04:35:47.847Z,985.34
2023-10-29T04:36:17.847Z,985.27
2023-10-29T04:36:47.860Z,985.28
2023-10-29T04:37:17.850Z,985.35
2023-10-29T04:37:47.833Z,985.29
2023-10-29T04:38:17.821Z,985.33
2023-10-29T04:38:47.831Z,985.34
2023-10-29T04:39:17.818Z,985.27
2023-10-29T04:39:47.798Z,985.17
2023-10-29T04:40:17.810Z,985.34
2023-10-29T04:40:47.776Z,985.27
2023-10-29T04:41:17.795Z,985.17
2023-10-29T04:41:47.865Z,985.11
2023-10-29T04:42:17.774Z,985.21
2023-10-29T04:42:47.779Z,985.16
2023-10-29T04:43:17.769Z,985.10
2023-10-29T04:43:47.741Z,985.13
2023-10-29T04:44:17.744Z,985.14
2023-10-29T04:44:47.958Z,985.08
2023-10-29T04:45:17.782Z,985.12
2023-10-29T04:45:47.799Z,985.12
2023-10-29T04:46:17.838Z,985.08
2023-10-29T04:46:47.749Z,985.00
2023-10-29T04:47:17.745Z,985.07
2023-10-29T04:47:47.917Z,985.02
2023-10-29T04:48:18.042Z,985.01
2023-10-29T04:48:47.701Z,984.98
2023-10-29T04:49:17.687Z,985.09
2023-10-29T04:49:47.699Z,984.99
2023-10-29T04:50:17.725Z,984.94
2023-10-29T04:50:47.719Z,984.85
2023-10-29T04:51:17.702Z,984.90
2023-10-29T04:51:47.694Z,984.84
2023-10-29T04:52:17.695Z,984.83
2023-10-29T04:52:47.686Z,984.73
2023-10-29T04:53:18.435Z,984.66
2023-10-29T04:53:47.676Z,984.72
2023-10-29T04:54:17.757Z,984.69
2023-10-29T04:54:47.832Z,984.65
2023-10-29T04:55:17.635Z,984.66
2023-10-29T04:55:47.635Z,984.66
2023-10-29T04:56:17.645Z,984.64
2023-10-29T04:56:47.663Z,984.65
2023-10-29T04:57:17.651Z,984.69
2023-10-29T04:57:47.633Z,984.61
2023-10-29T04:58:17.610Z,984.67
2023-10-29T04:58:47.608Z,984.64
2023-10-29T04:59:17.606Z,984.68
2023-10-29T04:59:48.482Z,984.67
2023-10-29T05:00:17.614Z,984.80
2023-10-29T05:00:47.582Z,984.59
2023-10-29T05:01:17.584Z,984.65
2023-10-29T05:01:47.724Z,984.71
2023-10-29T05:02:17.788Z,984.64
2023-10-29T05:02:47.615Z,984.63
2023-10-29T05:03:17.703Z,984.65
2023-10-29T05:03:47.680Z,984.65
2023-10-29T05:04:17.616Z,984.62
2023-10-29T05:04:47.655Z,984.69
2023-10-29T05:05:17.529Z,984.66
2023-10-29T05:05:50.193Z,984.64
2023-10-29T05:06:17.508Z,984.67
2023-10-29T05:06:47.521Z,984.55
2023-10-29T05:07:17.513Z,984.60
2023-10-29T05:07:47.536Z,984.66
2023-10-29T05:08:17.512Z,984.73
2023-10-29T05:08:47.593Z,984.66
2023-10-29T05:09:17.526Z,984.53
2023-10-29T05:09:47.493Z,984.57
2023-10-29T05:10:17.476Z,984.45
2023-10-29T05:10:47.479Z,984.42
2023-10-29T05:11:17.458Z,984.43
2023-10-29T05:11:47.492Z,984.46
2023-10-29T05:12:18.438Z,984.50
2023-10-29T05:12:47.504Z,984.55
2023-10-29T05:13:17.445Z,984.45
2023-10-29T05:13:47.442Z,984.50
2023-10-29T05:14:17.431Z,984.52
2023-10-29T05:14:47.620Z,984.57
2023-10-29T05:15:17.431Z,984.59
2023-10-29T05:15:47.579Z,984.60
2023-10-29T05:16:17.630Z,984.66
2023-10-29T05:16:47.400Z,984.63
2023-10-29T05:17:17.397Z,984.56
2023-10-29T05:17:47.509Z,984.58
2023-10-29T05:18:17.496Z,984.56
2023-10-29T05:18:47.390Z,984.65
2023-10-29T05:19:17.412Z,984.57
2023-10-29T05:19:47.440Z,984.57
2023-10-29T05:20:17.370Z,984.61
2023-10-29T05:20:47.440Z,984.67
2023-10-29T05:21:17.368Z,984.56
2023-10-29T05:21:47.369Z,984.61
2023-10-29T05:22:17.368Z,984.64
2023-10-29T05:22:47.369Z,984.56
2023-10-29T05:23:17.346Z,984.63
2023-10-29T05:23:47.374Z,984.68
2023-10-29T05:24:17.328Z,984.69
2023-10-29T05:24:47.553Z,984.76
2023-10-29T05:25:17.308Z,984.68
2023-10-29T05:25:47.319Z,984.69
2023-10-29T05:26:17.326Z,984.74
2023-10-29T05:26:47.348Z,984.67
2023-10-29T05:27:17.296Z,984.67
2023-10-29T05:27:47.333Z,984.62
2023-10-29T05:28:17.296Z,984.62
2023-10-29T05:28:47.286Z,984.72
2023-10-29T05:29:17.283Z,984.70
2023-10-29T05:29:47.474Z,984.61
2023-10-29T05:30:17.479Z,984.63
2023-10-29T05:30:47.269Z,984.66
2023-10-29T05:31:17.272Z,984.63
2023-10-29T05:31:47.260Z,984.66
2023-10-29T05:32:17.243Z,984.59
2023-10-29T05:32:47.322Z,984.60
2023-10-29T05:33:17.440Z,984.59
2023-10-29T05:33:47.226Z,984.61
2023-10-29T05:34:17.253Z,984.61
2023-10-29T05:34:47.473Z,984.61
2023-10-29T05:35:17.240Z,984.55
2023-10-29T05:35:47.334Z,984.58
2023-10-29T05:36:17.225Z,984.48
2023-10-29T05:36:47.203Z,984.50
2023-10-29T05:37:17.203Z,984.45
2023-10-29T05:37:47.210Z,984.41
2023-10-29T05:38:17.193Z,984.42
2023-10-29T05:38:47.218Z,984.46
2023-10-29T05:39:17.177Z,984.60
2023-10-29T05:39:47.174Z,984.62
2023-10-29T05:40:17.207Z,984.56
2023-10-29T05:40:47.159Z,984.71
2023-10-29T05:41:17.157Z,984.75
2023-10-29T05:41:47.176Z,984.82
2023-10-29T05:42:17.170Z,984.80
2023-10-29T05:42:47.139Z,984.81
2023-10-29T05:43:17.148Z,984.78
2023-10-29T05:43:47.251Z,984.82
2023-10-29T05:44:17.295Z,984.81
2023-10-29T05:44:47.394Z,984.80
2023-10-29T05:45:17.185Z,984.84
2023-10-29T05:45:47.157Z,984.82
2023-10-29T05:46:17.158Z,984.83
2023-10-29T05:46:47.165Z,984.82
2023-10-29T05:47:17.118Z,984.92
2023-10-29T05:47:47.200Z,984.83
2023-10-29T05:48:17.152Z,984.80
2023-10-29T05:48:47.028Z,984.84
2023-10-29T05:49:17.081Z,984.93
2023-10-29T05:49:47.021Z,984.89
2023-10-29T05:50:17.015Z,984.91
2023-10-29T05:50:47.056Z,984.86
2023-10-29T05:51:17.018Z,984.89
2023-10-29T05:51:47.001Z,984.89
2023-10-29T05:52:17.005Z,984.96
2023-10-29T05:52:47.032Z,984.95
2023-10-29T05:53:17.005Z,984.97
2023-10-29T05:53:47.033Z,985.05
2023-10-29T05:54:16.985Z,985.04
2023-10-29T05:54:47.167Z,985.20
2023-10-29T05:55:17.025Z,985.03
2023-10-29T05:55:46.957Z,985.07
2023-10-29T05:56:16.972Z,985.05
2023-10-29T05:56:46.976Z,984.98
2023-10-29T05:57:16.932Z,985.01
2023-10-29T05:57:47.069Z,984.95
2023-10-29T05:58:17.139Z,985.04
2023-10-29T05:58:47.902Z,985.01
2023-10-29T05:59:16.936Z,984.86
2023-10-29T05:59:46.937Z,984.89
2023-10-29T06:00:16.908Z,984.89
2023-10-29T06:00:46.900Z,984.89
2023-10-29T06:01:16.907Z,984.91
2023-10-29T06:01:46.892Z,984.82
2023-10-29T06:02:16.883Z,984.81
2023-10-29T06:02:46.939Z,984.79
2023-10-29T06:03:16.968Z,984.85
2023-10-29T06:03:47.086Z,984.70
2023-10-29T06:04:16.994Z,984.77
2023-10-29T06:04:47.173Z,984.80
2023-10-29T06:05:16.859Z,984.76
2023-10-29T06:05:46.874Z,984.65
2023-10-29T06:06:16.835Z,984.55
2023-10-29T06:06:46.854Z,984.58
2023-10-29T06:07:16.865Z,984.62
2023-10-29T06:07:46.817Z,984.54
2023-10-29T06:08:16.851Z,984.50
2023-10-29T06:08:46.883Z,984.44
2023-10-29T06:09:23.675Z,984.48
2023-10-29T06:09:46.811Z,984.45
2023-10-29T06:10:16.818Z,984.43
2023-10-29T06:10:46.802Z,984.37
2023-10-29T06:11:16.807Z,984.38
2023-10-29T06:11:46.923Z,984.36
2023-10-29T06:12:16.969Z,984.39
2023-10-29T06:12:46.794Z,984.40
2023-10-29T06:13:16.825Z,984.51
2023-10-29T06:13:46.777Z,984.60
2023-10-29T06:14:16.760Z,984.66